This is the latest recevied weather packets stored in our database for station/object KF5JED-13. If no packets are shown the sender has not sent any weather packets the latest 1 day(s).
| Time | Temp. | Humidity | Pressure | Rain* | Wind** | Luminosity | Snow |
|---|---|---|---|---|---|---|---|
| 1777993812 | 13.89° C | 47% | 1010.1 hPa | 0 mm | 6.26 m/s, 352° | 392 W/m² | - |
| 1777993508 | 12.78° C | 49% | 1010.2 hPa | 0 mm | 4.92 m/s, 21° | 303 W/m² | - |
| 1777993204 | 13.33° C | 49% | 1009.9 hPa | 0 mm | 6.71 m/s, 26° | 368 W/m² | - |
| 1777992901 | 12.78° C | 48% | 1009.8 hPa | 0 mm | 4.02 m/s, 14° | 239 W/m² | - |
| 1777992599 | 12.78° C | 49% | 1010 hPa | 0 mm | 3.58 m/s, 26° | 252 W/m² | - |
| 1777992296 | 12.78° C | 49% | 1010.1 hPa | 0 mm | 6.26 m/s, 359° | 257 W/m² | - |
| 1777991993 | 13.33° C | 48% | 1009.9 hPa | 0 mm | 6.26 m/s, 12° | 296 W/m² | - |
| 1777991691 | 12.78° C | 48% | 1010.1 hPa | 0 mm | 6.26 m/s, 356° | 326 W/m² | - |
| 1777991388 | 12.78° C | 49% | 1010.2 hPa | 0 mm | 6.26 m/s, 9° | 201 W/m² | - |
| 1777991085 | 12.78° C | 49% | 1009.9 hPa | 0 mm | 7.6 m/s, 12° | 322 W/m² | - |
| 1777990783 | 12.22° C | 50% | 1009.9 hPa | 0 mm | 4.92 m/s, 359° | 299 W/m² | - |
| 1777990479 | 12.22° C | 50% | 1010.1 hPa | 0 mm | 6.71 m/s, 11° | 282 W/m² | - |
| 1777990177 | 12.22° C | 50% | 1010.2 hPa | 0 mm | 5.36 m/s, 7° | 197 W/m² | - |
| 1777989873 | 11.67° C | 51% | 1009.9 hPa | 0 mm | 5.81 m/s, 16° | 258 W/m² | - |
| 1777989571 | 12.22° C | 51% | 1010 hPa | 0 mm | 4.47 m/s, 343° | 141 W/m² | - |
| 1777989266 | 12.22° C | 51% | 1009.7 hPa | 0 mm | 5.36 m/s, 7° | 241 W/m² | - |
| 1777988963 | 11.67° C | 52% | 1009.6 hPa | 0 mm | 5.36 m/s, 354° | 173 W/m² | - |
| 1777988660 | 11.67° C | 51% | 1009.8 hPa | 0 mm | 5.81 m/s, 351° | 128 W/m² | - |
| 1777988356 | 11.67° C | 52% | 1009.7 hPa | 0 mm | 4.92 m/s, 8° | 148 W/m² | - |
| 1777988054 | 11.67° C | 52% | 1009.4 hPa | 0 mm | 4.47 m/s, 5° | 104 W/m² | - |
| 1777987749 | 11.67° C | 52% | 1009.1 hPa | 0 mm | 4.47 m/s, 19° | 140 W/m² | - |
| 1777987446 | 11.67° C | 53% | 1008.9 hPa | 0 mm | 4.02 m/s, 16° | 117 W/m² | - |
| 1777987143 | 11.67° C | 53% | 1008.8 hPa | 0 mm | 4.92 m/s, 14° | 95 W/m² | - |
| 1777986840 | 11.67° C | 54% | 1008.4 hPa | 0 mm | 4.92 m/s, 12° | 89 W/m² | - |
| 1777986538 | 11.67° C | 53% | 1008.3 hPa | 0 mm | 5.36 m/s, 1° | 81 W/m² | - |
* Rain latest hour (hover to see other rain measurements)
** Current wind speed in m/s (hover to see current wind gust speed)